createdAt,value
2022-12-23T00:02:38.625Z,4.86
2022-12-23T00:05:41.409Z,4.90
2022-12-23T00:08:44.110Z,4.87
2022-12-23T00:12:05.644Z,4.92
2022-12-23T00:15:09.227Z,5.07
2022-12-23T00:18:11.841Z,5.02
2022-12-23T00:21:16.358Z,5.00
2022-12-23T00:24:19.121Z,4.93
2022-12-23T00:27:21.344Z,4.97
2022-12-23T00:30:24.374Z,4.99
2022-12-23T00:33:32.370Z,4.95
2022-12-23T00:36:35.063Z,4.85
2022-12-23T00:39:59.875Z,4.85
2022-12-23T00:43:05.180Z,4.84
2022-12-23T00:46:07.505Z,4.95
2022-12-23T00:49:34.113Z,4.94
2022-12-23T00:52:36.771Z,4.95
2022-12-23T00:55:39.247Z,4.89
2022-12-23T00:58:41.545Z,4.86
2022-12-23T01:02:03.046Z,4.78
2022-12-23T01:05:23.749Z,4.70
2022-12-23T01:08:26.628Z,4.82
2022-12-23T01:11:28.811Z,4.78
2022-12-23T01:14:31.469Z,4.74
2022-12-23T01:17:33.956Z,4.75
2022-12-23T01:20:40.395Z,4.78
2022-12-23T01:23:42.622Z,4.80
2022-12-23T01:26:45.355Z,4.84
2022-12-23T01:29:47.497Z,4.83
2022-12-23T01:32:50.073Z,4.93
2022-12-23T01:35:52.269Z,4.92
2022-12-23T01:38:56.915Z,4.87
2022-12-23T01:42:18.773Z,4.88
2022-12-23T01:45:28.994Z,4.82
2022-12-23T01:48:31.195Z,4.82
2022-12-23T01:51:33.849Z,4.85
2022-12-23T01:54:37.087Z,4.82
2022-12-23T01:57:42.548Z,4.87
2022-12-23T02:01:03.932Z,4.86
2022-12-23T02:04:11.059Z,4.83
2022-12-23T02:07:32.628Z,4.73
2022-12-23T02:11:10.227Z,4.69
2022-12-23T02:14:47.871Z,4.73
2022-12-23T02:17:53.050Z,4.71
2022-12-23T02:21:24.296Z,4.70
2022-12-23T02:25:04.669Z,4.63
2022-12-23T02:28:15.722Z,4.45
2022-12-23T02:31:30.600Z,4.41
2022-12-23T02:34:35.643Z,4.32
2022-12-23T02:37:57.943Z,4.23
2022-12-23T02:41:16.306Z,4.26
2022-12-23T02:44:32.603Z,4.23
2022-12-23T02:47:43.487Z,4.21
2022-12-23T02:50:46.615Z,4.20
2022-12-23T02:53:57.460Z,4.06
2022-12-23T02:57:03.613Z,4.02
2022-12-23T03:00:26.221Z,3.96
2022-12-23T03:03:29.479Z,3.91
2022-12-23T03:06:39.395Z,3.93
2022-12-23T03:10:20.534Z,3.91
2022-12-23T03:13:41.257Z,3.97
2022-12-23T03:17:21.598Z,3.99
2022-12-23T03:20:42.416Z,4.02
2022-12-23T03:23:55.281Z,3.89
2022-12-23T03:27:06.632Z,3.90
2022-12-23T03:30:14.132Z,3.99
2022-12-23T03:33:44.807Z,4.01
2022-12-23T03:36:55.790Z,3.98
2022-12-23T03:40:09.346Z,3.98
2022-12-23T03:43:20.569Z,3.99
2022-12-23T03:46:36.585Z,4.01
2022-12-23T03:49:45.610Z,3.98
2022-12-23T03:53:00.516Z,3.83
2022-12-23T03:56:08.039Z,3.92
2022-12-23T03:59:27.088Z,3.92
2022-12-23T04:02:57.683Z,3.87
2022-12-23T04:06:04.519Z,3.87
2022-12-23T04:09:07.886Z,3.84
2022-12-23T04:12:10.765Z,3.84
2022-12-23T04:15:15.361Z,3.75
2022-12-23T04:18:18.101Z,3.70
2022-12-23T04:21:20.419Z,3.74
2022-12-23T04:24:23.757Z,3.68
2022-12-23T04:27:26.073Z,3.69
2022-12-23T04:30:33.921Z,3.70
2022-12-23T04:33:37.021Z,3.67
2022-12-23T04:36:39.730Z,3.63
2022-12-23T04:39:42.017Z,3.58
2022-12-23T04:42:44.570Z,3.61
2022-12-23T04:45:50.720Z,3.67
2022-12-23T04:48:53.485Z,3.59
2022-12-23T04:51:55.798Z,3.51
2022-12-23T04:54:58.665Z,3.41
2022-12-23T04:58:01.099Z,3.43
2022-12-23T05:01:08.220Z,3.45
2022-12-23T05:04:10.608Z,3.48
2022-12-23T05:07:13.314Z,3.34
2022-12-23T05:10:15.757Z,3.31
2022-12-23T05:13:18.412Z,3.31
2022-12-23T05:16:20.975Z,3.32
2022-12-23T05:19:23.775Z,3.39
2022-12-23T05:22:26.226Z,3.32
2022-12-23T05:25:28.965Z,3.37
2022-12-23T05:28:31.816Z,3.25
2022-12-23T05:31:34.642Z,3.11
2022-12-23T05:34:39.211Z,2.95
2022-12-23T05:37:41.828Z,2.92
2022-12-23T05:40:44.093Z,3.01
2022-12-23T05:43:46.771Z,3.01
2022-12-23T05:46:49.134Z,3.10
2022-12-23T05:49:51.848Z,3.02
2022-12-23T05:52:56.013Z,2.98
2022-12-23T05:55:58.511Z,2.95
2022-12-23T05:59:00.768Z,2.85
2022-12-23T06:02:03.533Z,2.84
2022-12-23T06:05:06.981Z,2.89
2022-12-23T06:08:09.466Z,2.99
2022-12-23T06:11:12.928Z,2.93
2022-12-23T06:14:15.297Z,2.96
2022-12-23T06:17:18.251Z,2.85
2022-12-23T06:20:21.182Z,2.85
2022-12-23T06:23:24.070Z,2.87
2022-12-23T06:26:26.559Z,2.85
2022-12-23T06:29:29.733Z,2.80
2022-12-23T06:32:37.959Z,2.79
2022-12-23T06:35:41.288Z,2.85
2022-12-23T06:38:44.597Z,2.91
2022-12-23T06:41:47.156Z,2.86
2022-12-23T06:44:49.452Z,2.86
2022-12-23T06:47:52.320Z,2.81
2022-12-23T06:50:54.617Z,2.76
2022-12-23T06:53:59.541Z,2.77
2022-12-23T06:57:01.838Z,2.80
2022-12-23T07:00:06.438Z,2.78
2022-12-23T07:03:08.949Z,2.78
2022-12-23T07:06:11.786Z,2.80
2022-12-23T07:09:14.020Z,2.82
2022-12-23T07:12:16.730Z,2.85
2022-12-23T07:15:19.138Z,2.72
2022-12-23T07:18:23.180Z,2.68
2022-12-23T07:21:29.598Z,2.80
2022-12-23T07:24:32.845Z,2.68
2022-12-23T07:27:35.512Z,2.72
2022-12-23T07:30:38.527Z,2.75
2022-12-23T07:33:40.821Z,2.78
2022-12-23T07:36:43.409Z,2.80
2022-12-23T07:39:45.614Z,2.86
2022-12-23T07:42:49.888Z,2.85
2022-12-23T07:45:59.271Z,2.81
2022-12-23T07:49:02.893Z,2.83
2022-12-23T07:52:05.218Z,2.87
2022-12-23T07:55:08.632Z,2.87
2022-12-23T07:58:11.018Z,2.76
2022-12-23T08:01:13.970Z,2.84
2022-12-23T08:04:17.557Z,2.91
2022-12-23T08:07:20.208Z,2.93
2022-12-23T08:10:22.869Z,2.87
2022-12-23T08:13:25.623Z,2.90
2022-12-23T08:16:28.237Z,2.90
2022-12-23T08:19:30.532Z,2.96
2022-12-23T08:22:33.420Z,2.95
2022-12-23T08:25:35.825Z,3.08
2022-12-23T08:28:40.501Z,3.13
2022-12-23T08:31:42.861Z,3.08
2022-12-23T08:34:45.545Z,3.09
2022-12-23T08:37:47.954Z,2.98
2022-12-23T08:40:51.051Z,3.07
2022-12-23T08:43:53.699Z,3.10
2022-12-23T08:46:57.031Z,3.08
2022-12-23T08:49:59.383Z,3.05
2022-12-23T08:53:02.506Z,2.95
2022-12-23T08:56:11.125Z,2.93
2022-12-23T08:59:19.242Z,2.90
2022-12-23T09:02:22.199Z,2.87
2022-12-23T09:05:25.713Z,2.91
2022-12-23T09:08:27.964Z,2.97
2022-12-23T09:11:31.030Z,3.01
2022-12-23T09:14:33.651Z,3.11
2022-12-23T09:17:36.536Z,3.18
2022-12-23T09:20:39.156Z,3.14
2022-12-23T09:23:42.219Z,3.15
2022-12-23T09:26:44.710Z,2.99
2022-12-23T09:29:47.378Z,2.97
2022-12-23T09:32:50.062Z,2.90
2022-12-23T09:35:52.772Z,2.89
2022-12-23T09:38:55.929Z,2.88
2022-12-23T09:42:28.308Z,2.86
2022-12-23T09:46:16.952Z,2.91
2022-12-23T09:49:22.314Z,2.92
2022-12-23T09:53:05.236Z,2.99
2022-12-23T09:56:24.338Z,2.96
2022-12-23T09:59:54.266Z,2.90
2022-12-23T10:03:00.841Z,2.85
2022-12-23T10:06:22.010Z,2.80
2022-12-23T10:09:24.624Z,2.87
2022-12-23T10:12:49.229Z,2.85
2022-12-23T10:15:53.189Z,2.85
2022-12-23T10:18:58.757Z,2.87
2022-12-23T10:22:10.245Z,2.90
2022-12-23T10:25:20.501Z,3.05
2022-12-23T10:28:23.289Z,3.02
2022-12-23T10:31:54.331Z,2.95
2022-12-23T10:35:17.716Z,2.99
2022-12-23T10:38:37.548Z,3.16
2022-12-23T10:41:55.606Z,3.16
2022-12-23T10:45:16.792Z,3.18
2022-12-23T10:48:22.248Z,3.22
2022-12-23T10:51:49.103Z,3.33
2022-12-23T10:54:51.596Z,3.26
2022-12-23T10:57:59.860Z,3.24
2022-12-23T11:01:15.009Z,3.28
2022-12-23T11:04:32.688Z,3.26
2022-12-23T11:07:44.778Z,3.36
2022-12-23T11:10:49.006Z,3.25
2022-12-23T11:13:51.166Z,3.32
2022-12-23T11:16:53.777Z,3.33
2022-12-23T11:20:17.666Z,3.38
2022-12-23T11:23:26.647Z,3.27
2022-12-23T11:26:28.956Z,3.29
2022-12-23T11:29:38.822Z,3.33
2022-12-23T11:32:42.733Z,3.37
2022-12-23T11:35:45.851Z,3.46
2022-12-23T11:38:54.352Z,3.49
2022-12-23T11:42:17.941Z,3.49
2022-12-23T11:45:30.438Z,3.48
2022-12-23T11:48:33.788Z,3.47
2022-12-23T11:51:36.311Z,3.49
2022-12-23T11:54:39.699Z,3.51
2022-12-23T11:57:46.256Z,3.47
2022-12-23T12:00:56.137Z,3.50
2022-12-23T12:04:03.302Z,3.48
2022-12-23T12:07:06.845Z,3.51
2022-12-23T12:10:18.250Z,3.55
2022-12-23T12:13:32.331Z,3.51
2022-12-23T12:16:50.116Z,3.51
2022-12-23T12:20:11.288Z,3.50
2022-12-23T12:23:21.135Z,3.63
2022-12-23T12:26:30.071Z,3.62
2022-12-23T12:29:55.217Z,3.69
2022-12-23T12:33:07.077Z,3.74
2022-12-23T12:36:22.850Z,3.81
2022-12-23T12:39:38.031Z,3.83
2022-12-23T12:42:52.393Z,3.84
2022-12-23T12:46:28.538Z,3.85
2022-12-23T12:49:41.859Z,3.86
2022-12-23T12:52:44.610Z,3.89
2022-12-23T12:55:59.272Z,4.02
2022-12-23T12:59:01.593Z,4.00
2022-12-23T13:02:39.548Z,3.98
2022-12-23T13:06:16.111Z,4.04
2022-12-23T13:09:56.607Z,3.94
2022-12-23T13:13:14.025Z,3.98
2022-12-23T13:16:41.035Z,4.06
2022-12-23T13:20:16.310Z,4.11
2022-12-23T13:23:45.567Z,4.11
2022-12-23T13:27:18.513Z,4.04
2022-12-23T13:30:23.875Z,4.05
2022-12-23T13:33:36.991Z,4.12
2022-12-23T13:36:52.434Z,4.12
2022-12-23T13:40:39.941Z,4.20
2022-12-23T13:43:47.601Z,4.14
2022-12-23T13:47:14.171Z,4.17
2022-12-23T13:50:40.765Z,4.18
2022-12-23T13:53:58.031Z,4.23
2022-12-23T13:57:44.513Z,4.27
2022-12-23T14:00:47.079Z,4.31
2022-12-23T14:03:50.814Z,4.32
2022-12-23T14:06:58.938Z,4.36
2022-12-23T14:10:19.595Z,4.31
2022-12-23T14:18:15.135Z,4.42
2022-12-23T14:21:36.577Z,4.35
2022-12-23T14:25:07.064Z,4.33
2022-12-23T14:28:39.331Z,4.38
2022-12-23T14:31:47.838Z,4.41
2022-12-23T14:35:24.401Z,4.33
2022-12-23T14:38:29.904Z,4.38
2022-12-23T14:41:41.441Z,4.36
2022-12-23T14:44:46.979Z,4.38
2022-12-23T14:47:49.313Z,4.40
2022-12-23T14:50:59.281Z,4.47
2022-12-23T14:54:02.008Z,4.38
2022-12-23T14:57:17.421Z,4.36
2022-12-23T15:00:20.028Z,4.41
2022-12-23T15:03:22.734Z,4.40
2022-12-23T15:06:35.196Z,4.42
2022-12-23T15:09:47.913Z,4.39
2022-12-23T15:12:55.321Z,4.44
2022-12-23T15:16:02.732Z,4.45
2022-12-23T15:19:18.946Z,4.50
2022-12-23T15:22:30.368Z,4.44
2022-12-23T15:25:40.091Z,4.39
2022-12-23T15:28:44.124Z,4.41
2022-12-23T15:31:52.944Z,4.48
2022-12-23T15:35:05.029Z,4.47
2022-12-23T15:38:07.490Z,4.52
2022-12-23T15:41:18.742Z,4.48
2022-12-23T15:44:25.434Z,4.50
2022-12-23T15:47:30.045Z,4.47
2022-12-23T15:50:42.276Z,4.48
2022-12-23T15:53:51.385Z,4.44
2022-12-23T15:56:56.442Z,4.43
2022-12-23T16:00:02.078Z,4.42
2022-12-23T16:03:26.150Z,4.41
2022-12-23T16:06:35.480Z,4.43
2022-12-23T16:09:38.101Z,4.42
2022-12-23T16:12:43.226Z,4.45
2022-12-23T16:15:46.091Z,4.43
2022-12-23T16:18:48.838Z,4.51
2022-12-23T16:21:51.680Z,4.46
2022-12-23T16:25:06.642Z,4.49
2022-12-23T16:28:14.865Z,4.54
2022-12-23T16:31:20.230Z,4.63
2022-12-23T16:34:22.924Z,4.54
2022-12-23T16:37:26.103Z,4.50
2022-12-23T16:40:28.626Z,4.51
2022-12-23T16:43:31.700Z,4.48
2022-12-23T16:46:37.845Z,4.44
2022-12-23T16:49:40.918Z,4.44
2022-12-23T16:52:43.281Z,4.53
2022-12-23T16:55:52.516Z,4.61
2022-12-23T16:58:59.333Z,4.67
2022-12-23T17:02:03.953Z,4.63
2022-12-23T17:05:07.942Z,4.58
2022-12-23T17:08:11.902Z,4.64
2022-12-23T17:11:19.886Z,4.62
2022-12-23T17:14:25.178Z,4.53
2022-12-23T17:17:27.757Z,4.56
2022-12-23T17:20:31.209Z,4.57
2022-12-23T17:23:33.481Z,4.55
2022-12-23T17:26:36.243Z,4.54
2022-12-23T17:29:39.260Z,4.55
2022-12-23T17:32:42.295Z,4.64
2022-12-23T17:35:46.752Z,4.57
2022-12-23T17:38:49.867Z,4.56
2022-12-23T17:41:52.336Z,4.66
2022-12-23T17:44:55.495Z,4.61
2022-12-23T17:47:57.897Z,4.52
2022-12-23T17:51:01.148Z,4.62
2022-12-23T17:54:04.638Z,4.57
2022-12-23T17:57:21.015Z,4.51
2022-12-23T18:00:31.659Z,4.52
2022-12-23T18:03:36.930Z,4.57
2022-12-23T18:06:39.478Z,4.52
2022-12-23T18:09:45.961Z,4.57
2022-12-23T18:12:52.206Z,4.57
2022-12-23T18:15:55.419Z,4.51
2022-12-23T18:18:58.414Z,4.50
2022-12-23T18:22:02.174Z,4.52
2022-12-23T18:25:04.945Z,4.52
2022-12-23T18:28:09.506Z,4.51
2022-12-23T18:31:18.405Z,4.48
2022-12-23T18:34:21.762Z,4.45
2022-12-23T18:37:24.699Z,4.44
2022-12-23T18:40:32.689Z,4.53
2022-12-23T18:43:35.611Z,4.51
2022-12-23T18:46:38.529Z,4.50
2022-12-23T18:49:41.584Z,4.49
2022-12-23T18:52:46.681Z,4.41
2022-12-23T18:55:49.395Z,4.42
2022-12-23T18:58:52.475Z,4.46
2022-12-23T19:01:56.300Z,4.41
2022-12-23T19:04:59.210Z,4.41
2022-12-23T19:08:01.577Z,4.47
2022-12-23T19:11:12.944Z,4.50
2022-12-23T19:14:15.405Z,4.51
2022-12-23T19:17:18.440Z,4.44
2022-12-23T19:20:22.052Z,4.43
2022-12-23T19:23:26.397Z,4.48
2022-12-23T19:26:28.944Z,4.44
2022-12-23T19:29:32.139Z,4.51
2022-12-23T19:32:34.995Z,4.47
2022-12-23T19:35:42.140Z,4.46
2022-12-23T19:38:45.601Z,4.40
2022-12-23T19:41:48.463Z,4.45
2022-12-23T19:44:50.938Z,4.46
2022-12-23T19:47:53.756Z,4.43
2022-12-23T19:51:15.267Z,4.46
2022-12-23T19:54:19.421Z,4.45
2022-12-23T19:57:23.253Z,4.51
2022-12-23T20:00:30.946Z,4.50
2022-12-23T20:03:33.825Z,4.41
2022-12-23T20:06:39.917Z,4.44
2022-12-23T20:09:42.522Z,4.43
2022-12-23T20:12:44.788Z,4.36
2022-12-23T20:15:47.381Z,4.34
2022-12-23T20:18:49.783Z,4.39
2022-12-23T20:21:52.625Z,4.29
2022-12-23T20:24:55.181Z,4.38
2022-12-23T20:27:58.095Z,4.40
2022-12-23T20:31:07.506Z,4.35
2022-12-23T20:34:15.119Z,4.24
2022-12-23T20:37:17.659Z,4.23
2022-12-23T20:40:20.989Z,4.18
2022-12-23T20:43:23.805Z,4.22
2022-12-23T20:46:28.029Z,4.27
2022-12-23T20:49:31.243Z,4.33
2022-12-23T20:52:34.109Z,4.30
2022-12-23T20:55:36.775Z,4.25
2022-12-23T20:58:56.037Z,4.29
2022-12-23T21:02:03.142Z,4.29
2022-12-23T21:05:06.120Z,4.33
2022-12-23T21:08:08.689Z,4.35
2022-12-23T21:11:12.154Z,4.35
2022-12-23T21:14:15.409Z,4.37
2022-12-23T21:17:18.457Z,4.47
2022-12-23T21:20:20.741Z,4.46
2022-12-23T21:23:23.347Z,4.49
2022-12-23T21:26:28.626Z,4.47
2022-12-23T21:29:31.249Z,4.43
2022-12-23T21:32:33.860Z,4.43
2022-12-23T21:35:36.725Z,4.45
2022-12-23T21:38:41.553Z,4.46
2022-12-23T21:41:44.319Z,4.40
2022-12-23T21:44:47.282Z,4.44
2022-12-23T21:47:49.912Z,4.39
2022-12-23T21:50:52.215Z,4.39
2022-12-23T21:53:57.185Z,4.44
2022-12-23T21:56:59.588Z,4.54
2022-12-23T22:00:02.830Z,4.51
2022-12-23T22:03:06.678Z,4.49
2022-12-23T22:06:12.117Z,4.44
2022-12-23T22:09:19.273Z,4.50
2022-12-23T22:12:21.826Z,4.58
2022-12-23T22:15:24.086Z,4.65
2022-12-23T22:18:26.650Z,4.64
2022-12-23T22:21:31.161Z,4.56
2022-12-23T22:24:33.778Z,4.51
2022-12-23T22:27:36.011Z,4.56
2022-12-23T22:30:38.593Z,4.59
2022-12-23T22:33:41.070Z,4.57
2022-12-23T22:36:43.827Z,4.55
2022-12-23T22:39:46.512Z,4.56
2022-12-23T22:42:49.127Z,4.54
2022-12-23T22:45:58.887Z,4.45
2022-12-23T22:49:01.749Z,4.37
2022-12-23T22:52:04.806Z,4.33
2022-12-23T22:55:07.828Z,4.36
2022-12-23T22:58:10.045Z,4.35
2022-12-23T23:01:26.638Z,4.30
2022-12-23T23:04:29.233Z,4.26
2022-12-23T23:07:31.809Z,4.29
2022-12-23T23:10:34.304Z,4.27
2022-12-23T23:13:36.818Z,4.30
2022-12-23T23:16:39.240Z,4.34
2022-12-23T23:19:41.823Z,4.30
2022-12-23T23:22:44.492Z,4.18
2022-12-23T23:25:47.141Z,4.21
2022-12-23T23:28:49.419Z,4.24
2022-12-23T23:31:51.963Z,4.30
2022-12-23T23:34:54.254Z,4.33
2022-12-23T23:37:56.797Z,4.27
2022-12-23T23:40:59.013Z,4.28
2022-12-23T23:44:01.527Z,4.37
2022-12-23T23:47:03.816Z,4.41
2022-12-23T23:50:07.411Z,4.40
2022-12-23T23:53:11.503Z,4.41
2022-12-23T23:56:16.363Z,4.40
2022-12-23T23:59:20.298Z,4.49
